Terminal Aerodrome Forecast
Issued by NWS Wakefield, VA

Home | Current Version | Previous Version | Text Only | Print | Product List | Glossary On
Versions: 1 2 3 4 5 6 7 8 9 10 11 12 13
000
FTUS41 KAKQ 011700
TAFRIC
TAF
KRIC 011730Z 0118/0218 18008KT P6SM SCT070 BKN100
     FM020600 19010G20KT 5SM -RA BR BKN025 OVC040
     FM020900 21010G20KT 5SM -RA BR OVC007
     FM021500 26012KT P6SM BKN025=

USA.gov is the U.S. government's official web portal to all federal, state and local government web resources and services.